createdAt,value
2022-08-11T00:01:50.977Z,6.60
2022-08-11T00:04:21.001Z,9.50
2022-08-11T00:06:48.617Z,5.63
2022-08-11T00:09:22.081Z,4.47
2022-08-11T00:11:58.747Z,6.00
2022-08-11T00:14:37.694Z,7.50
2022-08-11T00:17:04.796Z,3.60
2022-08-11T00:20:11.787Z,5.07
2022-08-11T00:22:25.328Z,4.32
2022-08-11T00:24:57.250Z,7.68
2022-08-11T00:27:37.859Z,5.47
2022-08-11T00:30:06.464Z,4.55
2022-08-11T00:32:34.622Z,5.13
2022-08-11T00:35:56.095Z,6.75
2022-08-11T00:37:50.868Z,4.75
2022-08-11T00:40:35.573Z,5.47
2022-08-11T00:43:39.619Z,5.45
2022-08-11T00:46:25.515Z,6.18
2022-08-11T00:49:24.596Z,4.80
2022-08-11T00:55:25.615Z,5.95
2022-08-11T00:58:02.590Z,5.70
2022-08-11T01:00:42.592Z,4.80
2022-08-11T01:03:20.225Z,7.15
2022-08-11T01:06:11.752Z,7.75
2022-08-11T01:09:22.043Z,4.88
2022-08-11T01:11:57.945Z,5.78
2022-08-11T01:14:55.672Z,5.03
2022-08-11T01:18:00.222Z,6.53
2022-08-11T01:20:49.596Z,4.93
2022-08-11T01:23:46.076Z,10.50
2022-08-11T01:26:49.618Z,6.70
2022-08-11T01:29:25.192Z,5.13
2022-08-11T01:32:29.791Z,9.55
2022-08-11T01:35:53.788Z,7.03
2022-08-11T01:38:43.773Z,7.18
2022-08-11T01:41:52.370Z,9.57
2022-08-11T01:45:07.353Z,5.25
2022-08-11T01:47:54.251Z,6.32
2022-08-11T01:50:33.206Z,6.55
2022-08-11T01:53:40.031Z,5.88
2022-08-11T01:56:35.006Z,7.35
2022-08-11T01:59:19.860Z,11.10
2022-08-11T02:04:13.327Z,7.50
2022-08-11T02:07:03.092Z,5.68
2022-08-11T02:10:26.869Z,5.18
2022-08-11T02:13:36.466Z,7.47
2022-08-11T02:16:27.864Z,7.47
2022-08-11T02:19:32.439Z,6.45
2022-08-11T02:22:47.847Z,6.82
2022-08-11T02:25:44.103Z,9.00
2022-08-11T02:28:18.833Z,7.88
2022-08-11T02:32:15.461Z,7.65
2022-08-11T02:34:39.197Z,7.68
2022-08-11T02:37:29.150Z,9.45
2022-08-11T02:39:58.900Z,7.72
2022-08-11T02:42:36.192Z,7.53
2022-08-11T02:45:09.112Z,6.85
2022-08-11T02:48:24.558Z,8.43
2022-08-11T02:51:30.229Z,5.43
2022-08-11T02:54:13.673Z,9.43
2022-08-11T02:56:58.646Z,11.48
2022-08-11T03:00:02.301Z,9.50
2022-08-11T03:02:31.801Z,6.72
2022-08-11T03:04:58.557Z,7.55
2022-08-11T03:07:52.378Z,6.57
2022-08-11T03:10:32.317Z,9.43
2022-08-11T03:13:47.900Z,7.32
2022-08-11T03:16:42.432Z,10.73
2022-08-11T03:19:35.776Z,9.73
2022-08-11T03:22:29.125Z,8.20
2022-08-11T03:25:03.668Z,7.93
2022-08-11T03:30:17.513Z,7.95
2022-08-11T03:33:21.006Z,9.30
2022-08-11T03:36:08.096Z,11.27
2022-08-11T03:39:00.236Z,8.05
2022-08-11T03:42:02.591Z,11.73
2022-08-11T03:44:35.289Z,8.60
2022-08-11T03:47:12.651Z,9.55
2022-08-11T03:50:14.814Z,7.40
2022-08-11T03:52:53.935Z,9.40
2022-08-11T03:55:57.589Z,9.43
2022-08-11T03:59:13.134Z,11.80
2022-08-11T04:02:04.807Z,10.68
2022-08-11T04:04:52.790Z,10.18
2022-08-11T04:07:28.745Z,10.10
2022-08-11T04:10:21.896Z,13.05
2022-08-11T04:13:16.980Z,8.80
2022-08-11T04:16:40.323Z,8.88
2022-08-11T04:19:28.242Z,12.13
2022-08-11T04:22:20.885Z,9.68
2022-08-11T04:25:58.076Z,10.85
2022-08-11T04:28:33.943Z,10.57
2022-08-11T04:31:50.287Z,8.13
2022-08-11T04:34:44.694Z,10.40
2022-08-11T04:37:34.836Z,9.05
2022-08-11T04:40:34.961Z,10.15
2022-08-11T04:44:02.793Z,10.27
2022-08-11T04:46:59.816Z,10.57
2022-08-11T04:50:33.441Z,9.05
2022-08-11T04:53:44.491Z,15.98
2022-08-11T04:56:43.034Z,9.00
2022-08-11T04:59:46.553Z,10.90
2022-08-11T05:02:22.310Z,12.25
2022-08-11T05:05:19.744Z,10.80
2022-08-11T05:08:24.249Z,11.07
2022-08-11T05:11:22.588Z,10.50
2022-08-11T05:14:11.592Z,9.23
2022-08-11T05:17:07.300Z,12.40
2022-08-11T05:19:52.595Z,9.07
2022-08-11T05:22:40.918Z,8.35
2022-08-11T05:26:43.030Z,12.68
2022-08-11T05:28:50.748Z,9.48
2022-08-11T05:31:41.561Z,10.10
2022-08-11T05:34:31.451Z,5.97
2022-08-11T05:37:25.588Z,9.48
2022-08-11T05:40:18.780Z,8.07
2022-08-11T05:43:12.644Z,7.07
2022-08-11T05:46:03.598Z,7.63
2022-08-11T05:48:52.963Z,8.80
2022-08-11T05:51:39.133Z,12.38
2022-08-11T05:54:38.653Z,10.35
2022-08-11T05:57:06.375Z,6.70
2022-08-11T05:59:34.401Z,8.70
2022-08-11T06:02:03.669Z,10.18
2022-08-11T06:04:31.555Z,9.30
2022-08-11T06:07:09.321Z,6.70
2022-08-11T06:09:47.253Z,7.07
2022-08-11T06:12:23.628Z,8.25
2022-08-11T06:14:58.586Z,5.93
2022-08-11T06:17:39.162Z,8.00
2022-08-11T06:20:13.270Z,6.35
2022-08-11T06:22:44.360Z,7.05
2022-08-11T06:25:12.453Z,5.70
2022-08-11T06:27:41.852Z,7.25
2022-08-11T06:30:19.446Z,7.50
2022-08-11T06:32:51.411Z,6.75
2022-08-11T06:35:38.436Z,7.63
2022-08-11T06:38:12.648Z,5.30
2022-08-11T06:41:10.915Z,4.88
2022-08-11T06:43:56.102Z,7.93
2022-08-11T06:46:33.049Z,10.95
2022-08-11T06:49:03.888Z,5.82
2022-08-11T06:51:32.544Z,5.70
2022-08-11T06:54:04.898Z,4.70
2022-08-11T07:00:03.859Z,4.53
2022-08-11T07:02:37.842Z,2.65
2022-08-11T07:05:15.567Z,3.22
2022-08-11T07:08:34.853Z,4.35
2022-08-11T07:11:50.021Z,5.10
2022-08-11T07:14:42.228Z,5.27
2022-08-11T07:17:14.554Z,4.25
2022-08-11T07:20:04.889Z,3.45
2022-08-11T07:22:51.905Z,2.58
2022-08-11T07:25:37.803Z,2.00
2022-08-11T07:28:33.296Z,6.13
2022-08-11T07:31:07.204Z,4.97
2022-08-11T07:34:08.492Z,3.70
2022-08-11T07:36:42.802Z,2.17
2022-08-11T07:39:17.144Z,4.75
2022-08-11T07:41:44.800Z,2.58
2022-08-11T07:44:12.357Z,3.10
2022-08-11T07:47:02.403Z,4.68
2022-08-11T07:49:51.412Z,3.83
2022-08-11T07:52:32.347Z,2.30
2022-08-11T07:55:14.247Z,2.65
2022-08-11T07:58:16.641Z,5.65
2022-08-11T08:01:21.453Z,4.88
2022-08-11T08:04:12.242Z,2.40
2022-08-11T08:07:01.665Z,6.05
2022-08-11T08:09:51.864Z,2.83
2022-08-11T08:12:40.711Z,1.20
2022-08-11T08:15:28.696Z,5.63
2022-08-11T08:18:20.450Z,2.65
2022-08-11T08:20:49.840Z,3.60
2022-08-11T08:23:33.453Z,4.78
2022-08-11T08:26:04.673Z,2.22
2022-08-11T08:28:33.588Z,4.47
2022-08-11T08:31:01.086Z,8.32
2022-08-11T08:33:30.286Z,2.28
2022-08-11T08:36:14.717Z,2.22
2022-08-11T08:38:43.490Z,0.75
2022-08-11T08:41:13.249Z,6.20
2022-08-11T08:43:48.820Z,1.92
2022-08-11T08:46:20.727Z,2.17
2022-08-11T08:48:49.218Z,2.00
2022-08-11T08:52:01.019Z,3.92
2022-08-11T08:54:34.083Z,1.20
2022-08-11T08:57:05.356Z,1.73
2022-08-11T08:59:47.447Z,1.92
2022-08-11T09:02:16.164Z,4.37
2022-08-11T09:04:45.584Z,1.92
2022-08-11T09:07:26.692Z,2.15
2022-08-11T09:09:58.226Z,1.10
2022-08-11T09:12:38.365Z,1.73
2022-08-11T09:15:08.060Z,2.20
2022-08-11T09:17:37.592Z,1.10
2022-08-11T09:20:34.535Z,3.38
2022-08-11T09:26:30.480Z,1.73
2022-08-11T09:29:00.439Z,1.77
2022-08-11T09:31:38.918Z,1.85
2022-08-11T09:34:07.188Z,10.40
2022-08-11T09:36:53.028Z,4.35
2022-08-11T09:39:38.817Z,1.65
2022-08-11T09:42:06.567Z,2.08
2022-08-11T09:44:52.878Z,1.33
2022-08-11T09:47:26.455Z,1.30
2022-08-11T09:49:59.826Z,4.10
2022-08-11T09:54:55.489Z,2.78
2022-08-11T09:57:41.391Z,4.40
2022-08-11T10:00:13.533Z,2.35
2022-08-11T10:02:47.232Z,0.82
2022-08-11T10:08:01.445Z,1.77
2022-08-11T10:10:30.102Z,2.67
2022-08-11T10:13:04.270Z,2.95
2022-08-11T10:15:35.435Z,1.27
2022-08-11T10:18:42.331Z,0.95
2022-08-11T10:21:18.852Z,1.45
2022-08-11T10:24:05.813Z,2.45
2022-08-11T10:26:53.621Z,1.80
2022-08-11T10:30:02.236Z,5.63
2022-08-11T10:32:58.759Z,5.25
2022-08-11T10:35:29.357Z,4.20
2022-08-11T10:38:08.252Z,3.75
2022-08-11T10:40:39.079Z,1.45
2022-08-11T10:43:13.425Z,1.40
2022-08-11T10:46:05.342Z,1.77
2022-08-11T10:48:41.788Z,3.45
2022-08-11T10:51:15.396Z,3.35
2022-08-11T10:54:11.586Z,4.00
2022-08-11T10:56:58.831Z,2.22
2022-08-11T10:59:28.274Z,2.17
2022-08-11T11:01:56.234Z,2.33
2022-08-11T11:04:40.144Z,1.50
2022-08-11T11:07:15.865Z,3.30
2022-08-11T11:09:49.048Z,3.03
2022-08-11T11:12:52.655Z,5.75
2022-08-11T11:15:41.169Z,1.65
2022-08-11T11:18:33.562Z,1.80
2022-08-11T11:21:04.375Z,0.70
2022-08-11T11:23:39.172Z,4.38
2022-08-11T11:26:43.647Z,1.58
2022-08-11T11:29:16.424Z,3.80
2022-08-11T11:32:14.280Z,1.70
2022-08-11T11:35:02.801Z,6.57
2022-08-11T11:37:36.997Z,1.30
2022-08-11T11:40:15.686Z,3.50
2022-08-11T11:42:45.205Z,1.27
2022-08-11T11:45:22.593Z,1.02
2022-08-11T11:47:53.884Z,2.45
2022-08-11T11:50:32.724Z,1.00
2022-08-11T11:53:01.812Z,1.25
2022-08-11T11:55:30.566Z,1.05
2022-08-11T11:58:19.100Z,4.20
2022-08-11T12:01:12.487Z,1.42
2022-08-11T12:03:41.007Z,0.98
2022-08-11T12:06:09.523Z,2.20
2022-08-11T12:08:37.653Z,1.13
2022-08-11T12:11:29.256Z,4.68
2022-08-11T12:14:00.449Z,1.85
2022-08-11T12:16:34.558Z,1.17
2022-08-11T12:19:11.912Z,0.98
2022-08-11T12:22:00.578Z,0.93
2022-08-11T12:24:47.490Z,1.35
2022-08-11T12:27:24.169Z,3.03
2022-08-11T12:29:57.063Z,1.00
2022-08-11T12:32:28.144Z,1.58
2022-08-11T12:34:57.317Z,6.93
2022-08-11T12:37:30.347Z,1.88
2022-08-11T12:40:43.634Z,6.97
2022-08-11T12:46:09.302Z,2.25
2022-08-11T12:49:02.789Z,0.90
2022-08-11T12:52:14.615Z,1.17
2022-08-11T12:55:11.032Z,3.25
2022-08-11T12:58:04.622Z,1.02
2022-08-11T13:00:51.625Z,4.88
2022-08-11T13:03:41.511Z,2.83
2022-08-11T13:06:09.109Z,1.52
2022-08-11T13:08:39.319Z,1.83
2022-08-11T13:11:56.854Z,1.40
2022-08-11T13:14:15.178Z,1.40
2022-08-11T13:17:03.368Z,0.93
2022-08-11T13:19:32.131Z,1.95
2022-08-11T13:22:00.782Z,2.88
2022-08-11T13:24:28.604Z,1.58
2022-08-11T13:26:56.260Z,2.10
2022-08-11T13:29:26.045Z,1.15
2022-08-11T13:31:56.165Z,1.42
2022-08-11T13:34:25.531Z,3.60
2022-08-11T13:36:54.871Z,0.93
2022-08-11T13:39:26.184Z,1.17
2022-08-11T13:41:59.557Z,1.02
2022-08-11T13:44:28.871Z,1.40
2022-08-11T13:47:02.504Z,0.57
2022-08-11T13:49:31.447Z,1.13
2022-08-11T13:51:59.491Z,1.27
2022-08-11T13:54:30.480Z,2.67
2022-08-11T13:57:01.948Z,3.58
2022-08-11T13:59:29.920Z,3.80
2022-08-11T14:02:21.921Z,1.05
2022-08-11T14:05:07.026Z,1.23
2022-08-11T14:07:46.522Z,1.15
2022-08-11T14:10:16.447Z,3.78
2022-08-11T14:13:05.274Z,0.73
2022-08-11T14:15:36.630Z,0.85
2022-08-11T14:18:16.864Z,2.40
2022-08-11T14:21:05.322Z,1.73
2022-08-11T14:23:38.744Z,0.85
2022-08-11T14:26:26.445Z,1.65
2022-08-11T14:29:14.839Z,1.58
2022-08-11T14:31:46.430Z,1.67
2022-08-11T14:34:14.702Z,1.63
2022-08-11T14:36:47.443Z,3.13
2022-08-11T14:39:18.236Z,2.05
2022-08-11T14:42:18.899Z,1.08
2022-08-11T14:45:07.413Z,2.63
2022-08-11T14:47:37.077Z,1.67
2022-08-11T14:50:10.777Z,4.45
2022-08-11T14:52:45.748Z,0.82
2022-08-11T14:55:32.611Z,1.52
2022-08-11T14:58:01.973Z,2.35
2022-08-11T15:00:30.666Z,0.98
2022-08-11T15:03:11.564Z,3.00
2022-08-11T15:05:56.616Z,1.73
2022-08-11T15:08:46.657Z,1.02
2022-08-11T15:11:34.692Z,1.20
2022-08-11T15:14:04.054Z,2.17
2022-08-11T15:16:50.288Z,3.00
2022-08-11T15:19:21.147Z,1.05
2022-08-11T15:22:07.642Z,4.40
2022-08-11T15:24:36.553Z,2.38
2022-08-11T15:27:44.496Z,5.03
2022-08-11T15:30:32.867Z,1.58
2022-08-11T15:33:23.059Z,1.13
2022-08-11T15:36:09.704Z,1.73
2022-08-11T15:38:42.826Z,4.18
2022-08-11T15:41:32.342Z,4.95
2022-08-11T15:44:20.039Z,0.82
2022-08-11T15:46:55.849Z,1.92
2022-08-11T15:50:11.667Z,2.00
2022-08-11T15:52:30.739Z,1.48
2022-08-11T15:57:51.554Z,2.15
2022-08-11T16:00:38.032Z,2.35
2022-08-11T16:03:54.414Z,1.15
2022-08-11T16:06:14.231Z,4.63
2022-08-11T16:08:44.702Z,1.25
2022-08-11T16:11:12.457Z,1.55
2022-08-11T16:13:40.622Z,0.75
2022-08-11T16:16:17.097Z,1.25
2022-08-11T16:18:56.592Z,2.75
2022-08-11T16:21:34.653Z,2.05
2022-08-11T16:24:06.045Z,1.65
2022-08-11T16:27:09.352Z,1.90
2022-08-11T16:29:25.355Z,1.90
2022-08-11T16:32:13.661Z,5.40
2022-08-11T16:35:00.643Z,1.38
2022-08-11T16:37:46.985Z,2.53
2022-08-11T16:40:16.013Z,4.30
2022-08-11T16:43:11.004Z,1.25
2022-08-11T16:45:59.414Z,1.98
2022-08-11T16:48:36.272Z,3.67
2022-08-11T16:51:10.474Z,4.75
2022-08-11T16:53:48.957Z,2.50
2022-08-11T16:56:34.191Z,2.63
2022-08-11T16:59:15.607Z,1.40
2022-08-11T17:02:11.821Z,2.05
2022-08-11T17:05:09.463Z,1.08
2022-08-11T17:07:57.931Z,3.15
2022-08-11T17:11:03.158Z,5.07
2022-08-11T17:13:51.790Z,4.18
2022-08-11T17:16:27.863Z,2.95
2022-08-11T17:19:09.611Z,4.45
2022-08-11T17:22:01.291Z,1.90
2022-08-11T17:24:31.518Z,1.40
2022-08-11T17:27:00.745Z,3.70
2022-08-11T17:29:54.658Z,2.00
2022-08-11T17:33:00.425Z,3.45
2022-08-11T17:35:46.616Z,3.15
2022-08-11T17:38:17.441Z,2.63
2022-08-11T17:41:06.360Z,3.20
2022-08-11T17:43:52.747Z,3.85
2022-08-11T17:46:38.666Z,1.60
2022-08-11T17:49:11.231Z,5.22
2022-08-11T17:52:00.153Z,4.57
2022-08-11T17:54:45.900Z,3.47
2022-08-11T17:57:33.033Z,4.75
2022-08-11T18:00:00.843Z,1.73
2022-08-11T18:03:01.965Z,2.83
2022-08-11T18:05:31.655Z,3.47
2022-08-11T18:08:21.462Z,9.38
2022-08-11T18:11:07.751Z,1.63
2022-08-11T18:13:56.189Z,1.63
2022-08-11T18:16:41.811Z,3.88
2022-08-11T18:19:27.688Z,2.25
2022-08-11T18:22:41.505Z,8.13
2022-08-11T18:25:34.526Z,2.20
2022-08-11T18:28:24.048Z,7.18
2022-08-11T18:31:18.104Z,12.18
2022-08-11T18:34:09.896Z,2.78
2022-08-11T18:37:19.538Z,3.92
2022-08-11T18:40:15.077Z,14.52
2022-08-11T18:43:02.915Z,14.10
2022-08-11T18:45:48.323Z,10.02
2022-08-11T18:51:36.517Z,10.50
2022-08-11T18:54:28.064Z,5.63
2022-08-11T18:57:20.065Z,8.15
2022-08-11T19:00:06.944Z,5.47
2022-08-11T19:02:57.542Z,5.78
2022-08-11T19:06:32.565Z,6.03
2022-08-11T19:08:56.161Z,3.05
2022-08-11T19:11:43.924Z,3.72
2022-08-11T19:14:33.477Z,3.22
2022-08-11T19:17:43.682Z,3.33
2022-08-11T19:20:31.777Z,2.83
2022-08-11T19:23:18.177Z,3.30
2022-08-11T19:26:05.895Z,2.58
2022-08-11T19:28:52.806Z,2.55
2022-08-11T19:31:44.493Z,4.70
2022-08-11T19:34:36.441Z,2.70
2022-08-11T19:37:25.326Z,6.80
2022-08-11T19:40:26.719Z,2.90
2022-08-11T19:43:23.589Z,10.00
2022-08-11T19:46:16.337Z,8.75
2022-08-11T19:49:10.309Z,3.83
2022-08-11T19:51:57.118Z,3.60
2022-08-11T19:54:45.519Z,4.15
2022-08-11T19:57:35.897Z,4.30
2022-08-11T20:00:33.325Z,3.60
2022-08-11T20:03:22.212Z,5.32
2022-08-11T20:06:08.340Z,4.20
2022-08-11T20:08:58.823Z,3.85
2022-08-11T20:11:48.404Z,6.18
2022-08-11T20:14:36.485Z,2.50
2022-08-11T20:17:22.846Z,2.97
2022-08-11T20:20:09.657Z,7.85
2022-08-11T20:22:56.487Z,2.92
2022-08-11T20:25:43.155Z,5.43
2022-08-11T20:28:31.603Z,5.00
2022-08-11T20:31:16.819Z,7.05
2022-08-11T20:34:02.585Z,3.17
2022-08-11T20:36:54.895Z,2.47
2022-08-11T20:39:43.240Z,3.15
2022-08-11T20:42:30.946Z,3.75
2022-08-11T20:45:23.963Z,1.48
2022-08-11T20:48:15.289Z,3.80
2022-08-11T20:51:06.596Z,2.85
2022-08-11T20:53:56.893Z,4.22
2022-08-11T20:56:45.850Z,5.82
2022-08-11T20:59:38.432Z,8.82
2022-08-11T21:02:35.949Z,7.82
2022-08-11T21:06:09.548Z,6.15
2022-08-11T21:08:28.562Z,7.63
2022-08-11T21:11:14.311Z,4.45
2022-08-11T21:14:14.633Z,11.52
2022-08-11T21:17:01.234Z,2.75
2022-08-11T21:20:10.908Z,2.67
2022-08-11T21:23:19.936Z,4.22
2022-08-11T21:26:29.815Z,4.05
2022-08-11T21:29:18.236Z,4.82
2022-08-11T21:32:04.957Z,9.73
2022-08-11T21:34:52.420Z,7.07
2022-08-11T21:37:39.278Z,5.15
2022-08-11T21:40:28.142Z,7.35
2022-08-11T21:43:16.155Z,8.07
2022-08-11T21:46:03.036Z,8.38
2022-08-11T21:48:49.440Z,3.92
2022-08-11T21:51:34.789Z,2.90
2022-08-11T21:54:20.802Z,3.72
2022-08-11T21:57:07.165Z,10.63
2022-08-11T22:00:13.865Z,5.22
2022-08-11T22:03:01.657Z,4.82
2022-08-11T22:05:50.919Z,4.30
2022-08-11T22:08:37.156Z,4.32
2022-08-11T22:11:32.316Z,4.93
2022-08-11T22:14:20.266Z,8.32
2022-08-11T22:17:05.653Z,4.57
2022-08-11T22:19:52.381Z,1.85
2022-08-11T22:22:52.047Z,3.00
2022-08-11T22:25:39.061Z,7.18
2022-08-11T22:28:27.721Z,7.35
2022-08-11T22:31:15.387Z,9.70
2022-08-11T22:34:02.545Z,4.65
2022-08-11T22:36:49.878Z,5.57
2022-08-11T22:39:35.870Z,2.90
2022-08-11T22:42:24.020Z,3.72
2022-08-11T22:45:19.522Z,5.28
2022-08-11T22:48:07.014Z,7.15
2022-08-11T22:50:59.001Z,5.90
2022-08-11T22:53:57.593Z,4.38
2022-08-11T22:56:48.402Z,4.32
2022-08-11T22:59:35.911Z,4.93
2022-08-11T23:02:23.439Z,3.88
2022-08-11T23:05:09.890Z,4.78
2022-08-11T23:07:57.187Z,5.60
2022-08-11T23:10:43.115Z,5.22
2022-08-11T23:13:28.892Z,2.95
2022-08-11T23:16:15.286Z,9.15
2022-08-11T23:19:01.554Z,2.90
2022-08-11T23:35:03.430Z,6.38
2022-08-11T23:37:48.310Z,4.32
2022-08-11T23:40:33.781Z,5.40
2022-08-11T23:43:19.547Z,2.72
2022-08-11T23:46:04.880Z,2.60
2022-08-11T23:48:51.793Z,6.13
2022-08-11T23:51:40.697Z,3.15
2022-08-11T23:54:28.101Z,4.32
2022-08-11T23:57:14.106Z,3.63
2022-08-11T23:59:59.600Z,3.45
